createdAt,value
2022-10-09T00:01:09.526Z,81.30
2022-10-09T00:03:38.071Z,81.50
2022-10-09T00:06:06.182Z,81.60
2022-10-09T00:08:34.757Z,81.60
2022-10-09T00:11:05.993Z,81.70
2022-10-09T00:13:32.733Z,81.90
2022-10-09T00:16:07.327Z,81.70
2022-10-09T00:18:34.448Z,82.00
2022-10-09T00:21:01.294Z,81.80
2022-10-09T00:23:27.992Z,81.80
2022-10-09T00:25:59.815Z,81.90
2022-10-09T00:28:28.584Z,82.10
2022-10-09T00:30:55.790Z,81.90
2022-10-09T00:33:22.709Z,81.90
2022-10-09T00:35:49.443Z,81.80
2022-10-09T00:38:16.426Z,81.80
2022-10-09T00:40:43.709Z,81.80
2022-10-09T00:43:50.740Z,81.80
2022-10-09T00:46:41.941Z,82.60
2022-10-09T00:49:25.502Z,82.40
2022-10-09T00:51:53.078Z,82.20
2022-10-09T00:54:22.800Z,82.00
2022-10-09T00:56:50.446Z,82.20
2022-10-09T00:59:18.156Z,82.20
2022-10-09T01:01:44.901Z,82.40
2022-10-09T01:04:11.855Z,82.40
2022-10-09T01:06:56.502Z,82.60
2022-10-09T01:09:51.839Z,83.30
2022-10-09T01:12:28.346Z,83.10
2022-10-09T01:15:10.305Z,83.30
2022-10-09T01:17:46.937Z,83.40
2022-10-09T01:20:42.110Z,83.70
2022-10-09T01:23:14.220Z,83.90
2022-10-09T01:25:58.002Z,83.40
2022-10-09T01:28:29.918Z,83.80
2022-10-09T01:31:04.123Z,83.50
2022-10-09T01:33:32.311Z,83.70
2022-10-09T01:36:00.611Z,83.40
2022-10-09T01:38:29.392Z,83.40
2022-10-09T01:40:57.223Z,83.50
2022-10-09T01:43:23.850Z,83.50
2022-10-09T01:45:50.488Z,83.70
2022-10-09T01:48:23.077Z,84.10
2022-10-09T01:50:57.861Z,84.50
2022-10-09T01:53:25.921Z,85.20
2022-10-09T01:56:03.871Z,84.80
2022-10-09T01:58:35.462Z,85.50
2022-10-09T02:01:26.957Z,84.90
2022-10-09T02:03:56.076Z,85.70
2022-10-09T02:06:23.583Z,85.10
2022-10-09T02:08:52.320Z,85.00
2022-10-09T02:11:19.102Z,85.10
2022-10-09T02:13:48.059Z,84.80
2022-10-09T02:16:22.303Z,84.90
2022-10-09T02:18:57.275Z,85.70
2022-10-09T02:21:29.136Z,84.80
2022-10-09T02:23:57.787Z,84.80
2022-10-09T02:26:25.409Z,84.50
2022-10-09T02:28:52.307Z,84.60
2022-10-09T02:31:25.581Z,84.70
2022-10-09T02:33:57.210Z,85.20
2022-10-09T02:36:24.566Z,85.30
2022-10-09T02:38:51.392Z,85.10
2022-10-09T02:41:18.402Z,85.20
2022-10-09T02:43:44.991Z,85.20
2022-10-09T02:46:11.750Z,85.10
2022-10-09T02:48:38.440Z,85.10
2022-10-09T02:51:05.174Z,85.20
2022-10-09T02:53:31.786Z,85.30
2022-10-09T02:55:58.529Z,85.50
2022-10-09T02:58:25.234Z,85.60
2022-10-09T03:00:53.761Z,85.70
2022-10-09T03:03:20.773Z,86.00
2022-10-09T03:05:47.859Z,85.90
2022-10-09T03:08:14.819Z,85.90
2022-10-09T03:10:41.631Z,85.80
2022-10-09T03:13:09.102Z,85.90
2022-10-09T03:15:37.060Z,85.90
2022-10-09T03:18:04.260Z,85.80
2022-10-09T03:20:30.893Z,85.80
2022-10-09T03:22:57.887Z,85.80
2022-10-09T03:25:25.071Z,85.80
2022-10-09T03:27:51.789Z,85.70
2022-10-09T03:30:18.423Z,86.50
2022-10-09T03:32:45.076Z,85.60
2022-10-09T03:35:11.733Z,85.70
2022-10-09T03:37:38.361Z,85.80
2022-10-09T03:40:05.608Z,85.90
2022-10-09T03:42:32.278Z,85.80
2022-10-09T03:45:03.013Z,85.70
2022-10-09T03:47:30.200Z,85.70
2022-10-09T03:49:56.993Z,85.80
2022-10-09T03:52:23.764Z,85.90
2022-10-09T03:54:50.448Z,86.20
2022-10-09T03:57:17.104Z,86.60
2022-10-09T03:59:43.723Z,86.70
2022-10-09T04:02:10.353Z,86.70
2022-10-09T04:04:36.986Z,86.70
2022-10-09T04:07:03.624Z,86.80
2022-10-09T04:09:30.262Z,86.80
2022-10-09T04:11:56.875Z,87.00
2022-10-09T04:14:23.519Z,86.90
2022-10-09T04:16:50.131Z,86.90
2022-10-09T04:19:16.807Z,87.00
2022-10-09T04:21:43.434Z,87.00
2022-10-09T04:24:10.139Z,86.90
2022-10-09T04:26:36.740Z,86.90
2022-10-09T04:29:03.478Z,87.00
2022-10-09T04:31:30.233Z,87.10
2022-10-09T04:33:56.951Z,86.90
2022-10-09T04:36:23.937Z,86.90
2022-10-09T04:38:52.445Z,86.90
2022-10-09T04:41:19.157Z,86.70
2022-10-09T04:43:45.924Z,86.70
2022-10-09T04:46:14.434Z,86.60
2022-10-09T04:48:43.784Z,86.50
2022-10-09T04:51:10.990Z,86.50
2022-10-09T04:53:38.503Z,86.80
2022-10-09T04:56:17.300Z,86.70
2022-10-09T04:58:44.653Z,87.00
2022-10-09T05:01:18.434Z,86.90
2022-10-09T05:03:45.406Z,87.20
2022-10-09T05:06:13.220Z,87.10
2022-10-09T05:08:40.406Z,87.20
2022-10-09T05:11:09.400Z,87.20
2022-10-09T05:13:39.622Z,87.10
2022-10-09T05:16:12.773Z,87.00
2022-10-09T05:18:44.249Z,87.20
2022-10-09T05:21:11.043Z,87.10
2022-10-09T05:23:37.689Z,86.80
2022-10-09T05:26:06.796Z,86.90
2022-10-09T05:28:34.592Z,87.90
2022-10-09T05:31:03.956Z,88.80
2022-10-09T05:33:31.190Z,89.60
2022-10-09T05:36:00.341Z,89.60
2022-10-09T05:38:28.111Z,89.70
2022-10-09T05:41:00.139Z,89.50
2022-10-09T05:43:38.121Z,89.70
2022-10-09T05:46:12.169Z,89.60
2022-10-09T05:48:40.915Z,89.70
2022-10-09T05:51:19.813Z,89.50
2022-10-09T05:53:47.454Z,90.20
2022-10-09T05:56:19.859Z,89.80
2022-10-09T05:58:52.324Z,89.90
2022-10-09T06:01:20.116Z,89.80
2022-10-09T06:03:52.161Z,90.00
2022-10-09T06:06:20.438Z,90.30
2022-10-09T06:08:47.453Z,90.20
2022-10-09T06:11:22.774Z,90.20
2022-10-09T06:13:49.852Z,90.60
2022-10-09T06:16:17.924Z,90.60
2022-10-09T06:18:49.224Z,90.70
2022-10-09T06:21:16.311Z,90.80
2022-10-09T06:23:43.053Z,90.80
2022-10-09T06:26:12.241Z,91.00
2022-10-09T06:28:39.965Z,91.30
2022-10-09T06:31:09.156Z,91.30
2022-10-09T06:33:37.556Z,91.40
2022-10-09T06:36:10.700Z,91.50
2022-10-09T06:38:38.233Z,91.60
2022-10-09T06:41:10.110Z,91.60
2022-10-09T06:43:37.401Z,91.60
2022-10-09T06:46:07.253Z,91.70
2022-10-09T06:48:35.290Z,91.90
2022-10-09T06:51:06.164Z,92.10
2022-10-09T06:53:41.240Z,92.30
2022-10-09T06:56:08.646Z,92.70
2022-10-09T06:58:35.794Z,93.00
2022-10-09T07:03:46.168Z,93.60
2022-10-09T07:06:19.002Z,93.90
2022-10-09T07:08:51.353Z,94.00
2022-10-09T07:11:30.478Z,94.50
2022-10-09T07:13:59.601Z,94.40
2022-10-09T07:16:31.500Z,94.20
2022-10-09T07:19:00.045Z,94.00
2022-10-09T07:21:26.987Z,93.60
2022-10-09T07:23:56.518Z,93.40
2022-10-09T07:26:26.100Z,93.20
2022-10-09T07:28:53.350Z,92.60
2022-10-09T07:31:20.448Z,92.50
2022-10-09T07:33:48.524Z,91.70
2022-10-09T07:36:15.371Z,91.30
2022-10-09T07:38:42.542Z,91.00
2022-10-09T07:41:11.561Z,90.90
2022-10-09T07:43:40.155Z,91.00
2022-10-09T07:46:11.022Z,91.40
2022-10-09T07:48:38.377Z,91.70
2022-10-09T07:51:15.071Z,92.10
2022-10-09T07:53:41.883Z,92.20
2022-10-09T07:56:16.119Z,92.40
2022-10-09T07:58:43.915Z,91.80
2022-10-09T08:01:10.614Z,91.90
2022-10-09T08:03:38.451Z,92.00
2022-10-09T08:06:05.586Z,91.70
2022-10-09T08:08:32.439Z,91.50
2022-10-09T08:10:59.156Z,91.20
2022-10-09T08:13:26.096Z,90.30
2022-10-09T08:15:52.793Z,89.00
2022-10-09T08:18:19.434Z,87.80
2022-10-09T08:20:59.554Z,86.60
2022-10-09T08:23:26.685Z,83.30
2022-10-09T08:25:53.399Z,85.30
2022-10-09T08:28:20.395Z,84.60
2022-10-09T08:30:47.112Z,84.30
2022-10-09T08:33:13.851Z,83.80
2022-10-09T08:35:40.515Z,83.30
2022-10-09T08:38:07.182Z,81.90
2022-10-09T08:40:43.087Z,80.90
2022-10-09T08:43:15.530Z,77.80
2022-10-09T08:45:43.614Z,77.60
2022-10-09T08:48:20.189Z,76.50
2022-10-09T08:50:50.472Z,74.00
2022-10-09T08:53:28.966Z,73.20
2022-10-09T08:55:57.843Z,70.50
2022-10-09T08:58:36.330Z,71.30
2022-10-09T09:01:29.961Z,69.20
2022-10-09T09:04:18.374Z,68.60
2022-10-09T09:06:55.647Z,68.00
2022-10-09T09:09:31.830Z,69.40
2022-10-09T09:12:27.112Z,67.70
2022-10-09T09:15:17.295Z,65.90
2022-10-09T09:17:43.920Z,64.90
2022-10-09T09:20:30.822Z,66.60
2022-10-09T09:23:01.092Z,65.00
2022-10-09T09:25:41.102Z,65.00
2022-10-09T09:28:26.329Z,63.20
2022-10-09T09:31:06.620Z,63.20
2022-10-09T09:33:44.397Z,62.90
2022-10-09T09:36:14.397Z,62.90
2022-10-09T09:39:02.681Z,62.70
2022-10-09T09:41:28.986Z,63.00
2022-10-09T09:43:55.670Z,62.40
2022-10-09T09:46:27.123Z,61.80
2022-10-09T09:48:54.296Z,60.50
2022-10-09T09:51:31.989Z,60.50
2022-10-09T09:54:04.041Z,57.80
2022-10-09T09:57:06.762Z,59.20
2022-10-09T09:59:35.740Z,57.90
2022-10-09T10:02:11.214Z,59.00
2022-10-09T10:04:43.133Z,58.40
2022-10-09T10:07:09.937Z,57.50
2022-10-09T10:09:36.574Z,57.00
2022-10-09T10:12:05.835Z,57.10
2022-10-09T10:14:33.141Z,56.80
2022-10-09T10:17:01.243Z,56.10
2022-10-09T10:19:30.562Z,55.30
2022-10-09T10:22:21.314Z,54.50
2022-10-09T10:24:50.055Z,53.20
2022-10-09T10:27:28.417Z,54.20
2022-10-09T10:30:01.919Z,52.60
2022-10-09T10:32:38.107Z,53.10
2022-10-09T10:35:17.105Z,52.40
2022-10-09T10:38:00.766Z,52.80
2022-10-09T10:40:36.397Z,52.20
2022-10-09T10:43:38.154Z,53.20
2022-10-09T10:46:32.250Z,52.90
2022-10-09T10:49:00.266Z,53.90
2022-10-09T10:51:41.894Z,53.30
2022-10-09T10:54:23.637Z,53.30
2022-10-09T10:57:01.670Z,53.60
2022-10-09T10:59:58.176Z,54.00
2022-10-09T11:02:46.335Z,54.50
2022-10-09T11:05:27.583Z,55.00
2022-10-09T11:08:09.051Z,54.60
2022-10-09T11:10:41.477Z,54.40
2022-10-09T11:13:24.177Z,54.40
2022-10-09T11:16:04.488Z,54.20
2022-10-09T11:19:02.376Z,54.50
2022-10-09T11:21:44.356Z,54.70
2022-10-09T11:24:32.489Z,55.30
2022-10-09T11:27:11.081Z,55.40
2022-10-09T11:29:41.699Z,55.80
2022-10-09T11:32:21.607Z,55.20
2022-10-09T11:35:13.093Z,55.30
2022-10-09T11:37:43.472Z,54.80
2022-10-09T11:40:26.658Z,55.70
2022-10-09T11:43:14.431Z,55.50
2022-10-09T11:45:51.097Z,54.90
2022-10-09T11:48:43.520Z,55.20
2022-10-09T11:51:31.531Z,55.00
2022-10-09T11:53:59.127Z,54.50
2022-10-09T11:56:28.816Z,55.20
2022-10-09T11:58:58.543Z,55.00
2022-10-09T12:01:33.113Z,54.00
2022-10-09T12:04:50.041Z,55.20
2022-10-09T12:07:35.939Z,54.80
2022-10-09T12:10:07.255Z,55.70
2022-10-09T12:12:34.942Z,56.00
2022-10-09T12:15:30.802Z,56.20
2022-10-09T12:17:57.465Z,56.10
2022-10-09T12:20:25.791Z,56.10
2022-10-09T12:23:25.242Z,55.90
2022-10-09T12:25:49.453Z,55.60
2022-10-09T12:28:45.586Z,55.50
2022-10-09T12:31:30.871Z,54.90
2022-10-09T12:34:18.472Z,54.60
2022-10-09T12:36:45.121Z,54.80
2022-10-09T12:39:20.579Z,55.10
2022-10-09T12:41:50.648Z,55.00
2022-10-09T12:44:28.784Z,55.10
2022-10-09T12:46:59.756Z,54.50
2022-10-09T12:49:26.350Z,55.10
2022-10-09T12:51:56.358Z,55.20
2022-10-09T12:54:25.112Z,55.10
2022-10-09T12:56:56.825Z,55.20
2022-10-09T12:59:26.044Z,55.20
2022-10-09T13:01:57.758Z,55.40
2022-10-09T13:04:32.904Z,55.30
2022-10-09T13:07:02.665Z,55.40
2022-10-09T13:09:36.890Z,55.60
2022-10-09T13:12:13.678Z,55.30
2022-10-09T13:14:45.597Z,55.50
2022-10-09T13:20:16.663Z,55.10
2022-10-09T13:22:58.081Z,54.90
2022-10-09T13:25:34.020Z,55.20
2022-10-09T13:28:01.900Z,55.50
2022-10-09T13:30:28.586Z,55.50
2022-10-09T13:32:55.517Z,55.70
2022-10-09T13:35:22.192Z,55.80
2022-10-09T13:37:49.146Z,56.00
2022-10-09T13:40:20.375Z,56.00
2022-10-09T13:42:53.077Z,56.00
2022-10-09T13:45:19.784Z,56.30
2022-10-09T13:47:46.707Z,56.40
2022-10-09T13:50:14.742Z,56.60
2022-10-09T13:52:41.375Z,56.40
2022-10-09T13:55:09.028Z,56.60
2022-10-09T13:57:35.666Z,56.50
2022-10-09T14:00:02.889Z,56.60
2022-10-09T14:02:38.934Z,56.70
2022-10-09T14:05:06.089Z,56.70
2022-10-09T14:07:32.691Z,56.70
2022-10-09T14:09:59.367Z,56.40
2022-10-09T14:12:26.101Z,56.20
2022-10-09T14:14:53.859Z,56.20
2022-10-09T14:17:20.525Z,56.40
2022-10-09T14:19:47.111Z,56.50
2022-10-09T14:22:14.659Z,56.50
2022-10-09T14:24:41.279Z,56.80
2022-10-09T14:27:07.961Z,56.90
2022-10-09T14:29:34.613Z,56.90
2022-10-09T14:32:01.276Z,57.00
2022-10-09T14:34:28.038Z,57.50
2022-10-09T14:36:54.841Z,57.20
2022-10-09T14:39:21.516Z,57.10
2022-10-09T14:41:48.200Z,57.10
2022-10-09T14:44:14.862Z,57.20
2022-10-09T14:46:41.500Z,57.20
2022-10-09T14:49:08.626Z,57.20
2022-10-09T14:51:37.393Z,57.20
2022-10-09T14:54:05.465Z,57.30
2022-10-09T14:56:32.259Z,57.40
2022-10-09T14:59:02.340Z,57.50
2022-10-09T15:01:29.678Z,57.50
2022-10-09T15:03:56.892Z,57.60
2022-10-09T15:06:24.125Z,57.50
2022-10-09T15:08:54.116Z,57.60
2022-10-09T15:11:20.743Z,57.70
2022-10-09T15:13:47.353Z,58.00
2022-10-09T15:16:16.056Z,57.90
2022-10-09T15:18:43.630Z,58.10
2022-10-09T15:21:18.504Z,58.20
2022-10-09T15:23:46.463Z,58.20
2022-10-09T15:26:14.234Z,58.30
2022-10-09T15:28:43.378Z,58.40
2022-10-09T15:31:17.219Z,58.50
2022-10-09T15:33:43.828Z,58.50
2022-10-09T15:36:10.518Z,58.60
2022-10-09T15:38:37.166Z,58.70
2022-10-09T15:41:03.781Z,58.80
2022-10-09T15:43:30.514Z,58.90
2022-10-09T15:46:03.650Z,58.90
2022-10-09T15:48:31.183Z,58.90
2022-10-09T15:50:57.855Z,59.00
2022-10-09T15:53:25.010Z,59.00
2022-10-09T15:55:52.908Z,59.10
2022-10-09T15:58:20.322Z,59.20
2022-10-09T16:00:48.927Z,59.20
2022-10-09T16:03:17.807Z,59.20
2022-10-09T16:05:48.704Z,59.20
2022-10-09T16:08:16.627Z,59.20
2022-10-09T16:10:49.369Z,59.20
2022-10-09T16:13:16.575Z,59.30
2022-10-09T16:15:44.418Z,59.40
2022-10-09T16:18:11.689Z,59.40
2022-10-09T16:20:40.271Z,59.60
2022-10-09T16:23:08.480Z,59.70
2022-10-09T16:25:36.257Z,59.80
2022-10-09T16:28:03.684Z,59.90
2022-10-09T16:30:30.550Z,60.00
2022-10-09T16:32:57.213Z,60.20
2022-10-09T16:35:24.270Z,60.30
2022-10-09T16:37:53.935Z,60.50
2022-10-09T16:40:25.370Z,60.70
2022-10-09T16:43:02.718Z,60.70
2022-10-09T16:45:29.420Z,60.90
2022-10-09T16:47:59.680Z,60.90
2022-10-09T16:50:26.574Z,61.20
2022-10-09T16:52:53.489Z,61.10
2022-10-09T16:55:20.173Z,61.30
2022-10-09T16:57:46.851Z,61.40
2022-10-09T17:00:18.134Z,61.50
2022-10-09T17:02:45.745Z,61.60
2022-10-09T17:05:13.310Z,61.60
2022-10-09T17:07:39.932Z,61.70
2022-10-09T17:10:07.049Z,61.80
2022-10-09T17:12:33.639Z,61.80
2022-10-09T17:15:00.318Z,62.00
2022-10-09T17:17:26.957Z,62.00
2022-10-09T17:19:53.667Z,62.10
2022-10-09T17:22:20.319Z,62.10
2022-10-09T17:24:47.070Z,62.20
2022-10-09T17:27:13.744Z,62.20
2022-10-09T17:29:40.352Z,62.30
2022-10-09T17:32:09.161Z,62.40
2022-10-09T17:34:35.869Z,62.50
2022-10-09T17:37:02.537Z,62.50
2022-10-09T17:39:31.757Z,62.60
2022-10-09T17:41:58.448Z,62.60
2022-10-09T17:44:27.112Z,62.70
2022-10-09T17:46:53.973Z,62.80
2022-10-09T17:49:20.655Z,62.80
2022-10-09T17:51:48.127Z,62.80
2022-10-09T17:54:17.123Z,62.80
2022-10-09T17:56:44.328Z,62.80
2022-10-09T17:59:11.366Z,62.80
2022-10-09T18:01:38.585Z,63.00
2022-10-09T18:04:05.469Z,62.90
2022-10-09T18:06:34.117Z,63.00
2022-10-09T18:09:01.962Z,63.00
2022-10-09T18:11:29.917Z,63.00
2022-10-09T18:13:56.695Z,63.10
2022-10-09T18:16:35.772Z,63.20
2022-10-09T18:19:11.167Z,63.20
2022-10-09T18:21:40.170Z,63.30
2022-10-09T18:24:07.043Z,63.30
2022-10-09T18:26:34.171Z,63.40
2022-10-09T18:29:01.798Z,63.50
2022-10-09T18:31:28.898Z,63.50
2022-10-09T18:33:57.620Z,63.60
2022-10-09T18:36:30.923Z,63.70
2022-10-09T18:39:04.534Z,63.90
2022-10-09T18:41:31.563Z,64.00
2022-10-09T18:44:01.666Z,64.10
2022-10-09T18:46:34.011Z,64.10
2022-10-09T18:49:02.528Z,64.20
2022-10-09T18:51:30.917Z,64.30
2022-10-09T18:54:01.471Z,64.40
2022-10-09T18:56:32.281Z,64.50
2022-10-09T18:59:00.672Z,64.60
2022-10-09T19:01:27.383Z,64.70
2022-10-09T19:03:54.091Z,64.80
2022-10-09T19:06:20.885Z,64.70
2022-10-09T19:08:47.520Z,65.00
2022-10-09T19:11:15.530Z,64.90
2022-10-09T19:13:43.316Z,65.20
2022-10-09T19:16:10.942Z,65.00
2022-10-09T19:18:38.040Z,65.20
2022-10-09T19:21:05.554Z,65.30
2022-10-09T19:23:32.247Z,65.30
2022-10-09T19:25:59.769Z,65.30
2022-10-09T19:28:36.938Z,65.40
2022-10-09T19:31:08.309Z,65.60
2022-10-09T19:33:38.161Z,65.60
2022-10-09T19:36:06.470Z,65.60
2022-10-09T19:38:33.395Z,65.70
2022-10-09T19:41:05.690Z,65.80
2022-10-09T19:43:33.199Z,66.00
2022-10-09T19:46:11.966Z,66.00
2022-10-09T19:48:38.563Z,66.20
2022-10-09T19:51:13.592Z,66.00
2022-10-09T19:53:42.218Z,66.30
2022-10-09T19:56:18.664Z,66.20
2022-10-09T19:58:47.141Z,66.40
2022-10-09T20:01:16.098Z,66.40
2022-10-09T20:03:43.135Z,66.50
2022-10-09T20:06:10.793Z,66.50
2022-10-09T20:08:39.091Z,66.60
2022-10-09T20:11:07.319Z,66.70
2022-10-09T20:13:36.162Z,66.70
2022-10-09T20:16:05.306Z,66.80
2022-10-09T20:18:32.272Z,66.80
2022-10-09T20:20:59.032Z,66.80
2022-10-09T20:23:26.108Z,66.90
2022-10-09T20:26:07.929Z,66.90
2022-10-09T20:28:35.930Z,67.30
2022-10-09T20:31:06.426Z,67.00
2022-10-09T20:33:34.094Z,67.10
2022-10-09T20:36:00.721Z,67.10
2022-10-09T20:38:27.719Z,67.10
2022-10-09T20:40:54.551Z,67.20
2022-10-09T20:43:21.180Z,67.20
2022-10-09T20:45:47.810Z,67.30
2022-10-09T20:48:14.572Z,67.50
2022-10-09T20:50:42.026Z,67.30
2022-10-09T20:53:12.280Z,67.40
2022-10-09T20:55:38.945Z,67.50
2022-10-09T20:58:05.594Z,67.40
2022-10-09T21:00:32.197Z,67.50
2022-10-09T21:02:59.010Z,67.80
2022-10-09T21:05:25.669Z,67.90
2022-10-09T21:07:52.290Z,68.00
2022-10-09T21:10:18.919Z,68.10
2022-10-09T21:12:45.543Z,68.40
2022-10-09T21:15:12.196Z,68.60
2022-10-09T21:17:38.800Z,68.60
2022-10-09T21:20:05.776Z,68.90
2022-10-09T21:22:32.406Z,68.90
2022-10-09T21:24:59.090Z,68.90
2022-10-09T21:27:25.683Z,69.10
2022-10-09T21:29:52.325Z,69.10
2022-10-09T21:32:18.962Z,69.40
2022-10-09T21:34:45.923Z,69.50
2022-10-09T21:37:21.278Z,69.80
2022-10-09T21:39:48.659Z,69.80
2022-10-09T21:42:15.262Z,70.10
2022-10-09T21:44:41.893Z,70.10
2022-10-09T21:47:16.192Z,70.30
2022-10-09T21:49:42.837Z,70.60
2022-10-09T21:52:10.629Z,70.50
2022-10-09T21:54:37.259Z,70.50
2022-10-09T21:57:03.934Z,70.60
2022-10-09T21:59:30.592Z,70.80
2022-10-09T22:01:57.197Z,70.90
2022-10-09T22:04:23.951Z,70.90
2022-10-09T22:06:50.533Z,71.00
2022-10-09T22:09:17.215Z,71.10
2022-10-09T22:11:44.848Z,71.30
2022-10-09T22:14:11.614Z,71.50
2022-10-09T22:16:38.270Z,71.50
2022-10-09T22:19:04.890Z,71.70
2022-10-09T22:21:31.891Z,71.60
2022-10-09T22:24:00.101Z,72.00
2022-10-09T22:26:26.949Z,72.00
2022-10-09T22:28:53.587Z,71.90
2022-10-09T22:31:22.565Z,71.90
2022-10-09T22:33:53.819Z,71.90
2022-10-09T22:36:22.002Z,71.90
2022-10-09T22:38:48.627Z,71.80
2022-10-09T22:41:20.854Z,71.70
2022-10-09T22:43:49.468Z,72.10
2022-10-09T22:46:19.185Z,72.10
2022-10-09T22:48:46.338Z,72.10
2022-10-09T22:51:15.157Z,72.10
2022-10-09T22:53:43.090Z,72.40
2022-10-09T22:56:19.078Z,72.20
2022-10-09T22:58:47.425Z,72.50
2022-10-09T23:01:30.312Z,72.50
2022-10-09T23:03:58.604Z,72.50
2022-10-09T23:06:25.331Z,72.50
2022-10-09T23:08:52.300Z,72.70
2022-10-09T23:11:20.245Z,73.10
2022-10-09T23:13:47.695Z,73.30
2022-10-09T23:16:15.076Z,73.20
2022-10-09T23:18:42.387Z,73.30
2022-10-09T23:21:12.273Z,73.40
2022-10-09T23:23:39.405Z,73.60
2022-10-09T23:26:08.012Z,73.70
2022-10-09T23:28:35.438Z,73.70
2022-10-09T23:31:20.736Z,73.90
2022-10-09T23:33:47.858Z,75.20
2022-10-09T23:36:17.816Z,73.80
2022-10-09T23:38:45.082Z,74.20
2022-10-09T23:41:17.278Z,74.10
2022-10-09T23:43:45.187Z,74.30
2022-10-09T23:46:17.989Z,74.20
2022-10-09T23:48:45.236Z,74.30
2022-10-09T23:51:13.937Z,74.20
2022-10-09T23:53:41.570Z,74.30
2022-10-09T23:56:25.075Z,74.40
2022-10-09T23:58:52.520Z,74.90
